sensor_id;sensor_type;location;lat;lon;timestamp;P1;durP1;ratioP1;P2;durP2;ratioP2
63653;SDS011;49809;47.418;19.080;2022-07-04T00:02:30;2.45;;;2.17;;
63653;SDS011;49809;47.418;19.080;2022-07-04T00:05:34;2.90;;;2.42;;
63653;SDS011;49809;47.418;19.080;2022-07-04T00:08:40;2.73;;;2.23;;
63653;SDS011;49809;47.418;19.080;2022-07-04T00:11:45;2.42;;;2.12;;
63653;SDS011;49809;47.418;19.080;2022-07-04T00:14:48;3.05;;;2.22;;
63653;SDS011;49809;47.418;19.080;2022-07-04T00:17:51;5.47;;;2.20;;
63653;SDS011;49809;47.418;19.080;2022-07-04T00:20:54;2.55;;;2.08;;
63653;SDS011;49809;47.418;19.080;2022-07-04T00:24:00;3.47;;;2.00;;
63653;SDS011;49809;47.418;19.080;2022-07-04T00:27:06;2.07;;;1.83;;
63653;SDS011;49809;47.418;19.080;2022-07-04T00:30:09;2.33;;;1.80;;
63653;SDS011;49809;47.418;19.080;2022-07-04T00:33:13;3.80;;;2.47;;
63653;SDS011;49809;47.418;19.080;2022-07-04T00:36:18;3.80;;;2.10;;
63653;SDS011;49809;47.418;19.080;2022-07-04T00:39:21;2.40;;;1.98;;
63653;SDS011;49809;47.418;19.080;2022-07-04T00:42:27;2.20;;;1.67;;
63653;SDS011;49809;47.418;19.080;2022-07-04T00:45:29;3.10;;;1.87;;
63653;SDS011;49809;47.418;19.080;2022-07-04T00:48:34;2.28;;;1.60;;
63653;SDS011;49809;47.418;19.080;2022-07-04T00:51:37;2.10;;;1.60;;
63653;SDS011;49809;47.418;19.080;2022-07-04T00:57:48;3.95;;;1.90;;
63653;SDS011;49809;47.418;19.080;2022-07-04T01:00:51;3.22;;;1.55;;
63653;SDS011;49809;47.418;19.080;2022-07-04T01:03:55;2.20;;;1.83;;
63653;SDS011;49809;47.418;19.080;2022-07-04T01:06:59;1.60;;;1.40;;
63653;SDS011;49809;47.418;19.080;2022-07-04T01:10:08;2.78;;;1.70;;
63653;SDS011;49809;47.418;19.080;2022-07-04T01:13:22;2.83;;;2.03;;
63653;SDS011;49809;47.418;19.080;2022-07-04T01:16:25;3.55;;;1.58;;
63653;SDS011;49809;47.418;19.080;2022-07-04T01:19:29;2.08;;;1.73;;
63653;SDS011;49809;47.418;19.080;2022-07-04T01:22:32;3.03;;;1.90;;
63653;SDS011;49809;47.418;19.080;2022-07-04T01:25:36;1.95;;;1.73;;
63653;SDS011;49809;47.418;19.080;2022-07-04T01:28:38;2.37;;;1.90;;
63653;SDS011;49809;47.418;19.080;2022-07-04T01:31:44;2.53;;;1.92;;
63653;SDS011;49809;47.418;19.080;2022-07-04T01:34:48;2.40;;;1.95;;
63653;SDS011;49809;47.418;19.080;2022-07-04T01:37:52;1.90;;;1.65;;
63653;SDS011;49809;47.418;19.080;2022-07-04T01:40:55;2.25;;;1.65;;
63653;SDS011;49809;47.418;19.080;2022-07-04T01:43:58;2.45;;;1.65;;
63653;SDS011;49809;47.418;19.080;2022-07-04T01:47:02;1.90;;;1.67;;
63653;SDS011;49809;47.418;19.080;2022-07-04T01:50:06;2.55;;;1.95;;
63653;SDS011;49809;47.418;19.080;2022-07-04T01:53:11;2.57;;;1.93;;
63653;SDS011;49809;47.418;19.080;2022-07-04T01:56:17;2.75;;;1.80;;
63653;SDS011;49809;47.418;19.080;2022-07-04T01:59:19;1.90;;;1.60;;
63653;SDS011;49809;47.418;19.080;2022-07-04T02:02:45;2.67;;;2.00;;
63653;SDS011;49809;47.418;19.080;2022-07-04T02:05:50;2.12;;;1.73;;
63653;SDS011;49809;47.418;19.080;2022-07-04T02:08:56;2.37;;;1.85;;
63653;SDS011;49809;47.418;19.080;2022-07-04T02:12:21;2.17;;;1.75;;
63653;SDS011;49809;47.418;19.080;2022-07-04T02:15:43;3.22;;;1.80;;
63653;SDS011;49809;47.418;19.080;2022-07-04T02:18:46;2.40;;;1.75;;
63653;SDS011;49809;47.418;19.080;2022-07-04T02:21:50;2.80;;;2.00;;
63653;SDS011;49809;47.418;19.080;2022-07-04T02:24:56;2.25;;;2.00;;
63653;SDS011;49809;47.418;19.080;2022-07-04T02:28:00;2.65;;;1.98;;
63653;SDS011;49809;47.418;19.080;2022-07-04T02:31:03;1.83;;;1.67;;
63653;SDS011;49809;47.418;19.080;2022-07-04T02:34:11;2.25;;;1.67;;
63653;SDS011;49809;47.418;19.080;2022-07-04T02:37:20;2.87;;;2.10;;
63653;SDS011;49809;47.418;19.080;2022-07-04T02:40:45;2.83;;;2.20;;
63653;SDS011;49809;47.418;19.080;2022-07-04T02:43:51;1.90;;;1.70;;
63653;SDS011;49809;47.418;19.080;2022-07-04T02:46:53;2.62;;;1.92;;
63653;SDS011;49809;47.418;19.080;2022-07-04T02:49:56;2.25;;;1.95;;
63653;SDS011;49809;47.418;19.080;2022-07-04T02:53:00;1.60;;;1.42;;
63653;SDS011;49809;47.418;19.080;2022-07-04T02:56:02;1.90;;;1.40;;
63653;SDS011;49809;47.418;19.080;2022-07-04T02:59:10;2.62;;;1.90;;
63653;SDS011;49809;47.418;19.080;2022-07-04T03:02:15;2.37;;;1.85;;
63653;SDS011;49809;47.418;19.080;2022-07-04T03:05:18;3.70;;;2.12;;
63653;SDS011;49809;47.418;19.080;2022-07-04T03:08:22;2.40;;;2.10;;
63653;SDS011;49809;47.418;19.080;2022-07-04T03:11:27;3.15;;;2.20;;
63653;SDS011;49809;47.418;19.080;2022-07-04T03:14:33;2.65;;;1.95;;
63653;SDS011;49809;47.418;19.080;2022-07-04T03:17:36;3.35;;;1.95;;
63653;SDS011;49809;47.418;19.080;2022-07-04T03:20:42;2.90;;;1.80;;
63653;SDS011;49809;47.418;19.080;2022-07-04T03:23:45;6.50;;;1.90;;
63653;SDS011;49809;47.418;19.080;2022-07-04T03:27:01;2.33;;;2.00;;
63653;SDS011;49809;47.418;19.080;2022-07-04T03:30:06;3.07;;;1.93;;
63653;SDS011;49809;47.418;19.080;2022-07-04T03:33:10;3.30;;;2.15;;
63653;SDS011;49809;47.418;19.080;2022-07-04T03:36:15;2.80;;;2.08;;
63653;SDS011;49809;47.418;19.080;2022-07-04T03:39:22;3.72;;;2.10;;
63653;SDS011;49809;47.418;19.080;2022-07-04T03:42:25;3.45;;;2.55;;
63653;SDS011;49809;47.418;19.080;2022-07-04T03:45:28;4.97;;;2.60;;
63653;SDS011;49809;47.418;19.080;2022-07-04T03:48:34;3.05;;;2.25;;
63653;SDS011;49809;47.418;19.080;2022-07-04T03:51:42;3.00;;;2.15;;
63653;SDS011;49809;47.418;19.080;2022-07-04T03:54:44;3.35;;;2.50;;
63653;SDS011;49809;47.418;19.080;2022-07-04T03:57:50;3.47;;;2.40;;
63653;SDS011;49809;47.418;19.080;2022-07-04T04:01:00;2.90;;;2.30;;
63653;SDS011;49809;47.418;19.080;2022-07-04T04:04:06;2.43;;;2.00;;
63653;SDS011;49809;47.418;19.080;2022-07-04T04:07:27;3.92;;;2.03;;
63653;SDS011;49809;47.418;19.080;2022-07-04T04:10:31;3.17;;;2.20;;
63653;SDS011;49809;47.418;19.080;2022-07-04T04:13:34;2.58;;;2.00;;
63653;SDS011;49809;47.418;19.080;2022-07-04T04:16:38;2.37;;;2.03;;
63653;SDS011;49809;47.418;19.080;2022-07-04T04:19:41;2.58;;;1.87;;
63653;SDS011;49809;47.418;19.080;2022-07-04T04:22:47;3.58;;;2.37;;
63653;SDS011;49809;47.418;19.080;2022-07-04T04:25:53;2.47;;;2.12;;
63653;SDS011;49809;47.418;19.080;2022-07-04T04:29:00;2.17;;;1.97;;
63653;SDS011;49809;47.418;19.080;2022-07-04T04:32:03;2.15;;;1.70;;
63653;SDS011;49809;47.418;19.080;2022-07-04T04:35:06;2.78;;;2.40;;
63653;SDS011;49809;47.418;19.080;2022-07-04T04:38:12;2.35;;;1.80;;
63653;SDS011;49809;47.418;19.080;2022-07-04T04:41:16;2.25;;;1.95;;
63653;SDS011;49809;47.418;19.080;2022-07-04T04:44:19;2.00;;;1.60;;
63653;SDS011;49809;47.418;19.080;2022-07-04T04:47:22;2.20;;;2.00;;
63653;SDS011;49809;47.418;19.080;2022-07-04T04:50:26;2.45;;;1.83;;
63653;SDS011;49809;47.418;19.080;2022-07-04T04:53:29;3.60;;;1.90;;
63653;SDS011;49809;47.418;19.080;2022-07-04T04:59:43;2.30;;;1.80;;
63653;SDS011;49809;47.418;19.080;2022-07-04T05:02:45;2.92;;;2.00;;
63653;SDS011;49809;47.418;19.080;2022-07-04T05:05:53;2.35;;;1.90;;
63653;SDS011;49809;47.418;19.080;2022-07-04T05:08:58;2.80;;;2.00;;
63653;SDS011;49809;47.418;19.080;2022-07-04T05:12:02;2.75;;;1.90;;
63653;SDS011;49809;47.418;19.080;2022-07-04T05:15:07;1.87;;;1.77;;
63653;SDS011;49809;47.418;19.080;2022-07-04T05:18:13;3.05;;;2.05;;
63653;SDS011;49809;47.418;19.080;2022-07-04T05:21:20;2.17;;;1.90;;
63653;SDS011;49809;47.418;19.080;2022-07-04T05:24:29;2.08;;;1.87;;
63653;SDS011;49809;47.418;19.080;2022-07-04T05:27:31;1.87;;;1.60;;
63653;SDS011;49809;47.418;19.080;2022-07-04T05:30:35;2.22;;;1.80;;
63653;SDS011;49809;47.418;19.080;2022-07-04T05:33:41;2.97;;;1.77;;
63653;SDS011;49809;47.418;19.080;2022-07-04T05:36:44;3.53;;;1.90;;
63653;SDS011;49809;47.418;19.080;2022-07-04T05:39:52;2.00;;;1.60;;
63653;SDS011;49809;47.418;19.080;2022-07-04T05:42:57;2.03;;;1.83;;
63653;SDS011;49809;47.418;19.080;2022-07-04T05:46:03;3.30;;;2.10;;
63653;SDS011;49809;47.418;19.080;2022-07-04T05:49:06;2.50;;;1.73;;
63653;SDS011;49809;47.418;19.080;2022-07-04T05:52:10;3.33;;;1.90;;
63653;SDS011;49809;47.418;19.080;2022-07-04T05:55:13;2.28;;;2.08;;
63653;SDS011;49809;47.418;19.080;2022-07-04T05:58:16;2.92;;;2.00;;
63653;SDS011;49809;47.418;19.080;2022-07-04T06:01:19;4.00;;;1.75;;
63653;SDS011;49809;47.418;19.080;2022-07-04T06:04:27;1.75;;;1.40;;
63653;SDS011;49809;47.418;19.080;2022-07-04T06:07:32;2.05;;;1.70;;
63653;SDS011;49809;47.418;19.080;2022-07-04T06:10:35;2.17;;;1.75;;
63653;SDS011;49809;47.418;19.080;2022-07-04T06:13:40;2.35;;;1.17;;
63653;SDS011;49809;47.418;19.080;2022-07-04T06:16:43;1.50;;;1.40;;
63653;SDS011;49809;47.418;19.080;2022-07-04T06:19:46;2.10;;;1.50;;
63653;SDS011;49809;47.418;19.080;2022-07-04T06:22:51;2.10;;;1.60;;
63653;SDS011;49809;47.418;19.080;2022-07-04T06:25:54;2.00;;;1.40;;
63653;SDS011;49809;47.418;19.080;2022-07-04T06:29:01;2.55;;;1.37;;
63653;SDS011;49809;47.418;19.080;2022-07-04T06:32:06;1.20;;;1.10;;
63653;SDS011;49809;47.418;19.080;2022-07-04T06:35:09;3.17;;;1.20;;
63653;SDS011;49809;47.418;19.080;2022-07-04T06:38:32;1.40;;;1.30;;
63653;SDS011;49809;47.418;19.080;2022-07-04T06:41:35;1.30;;;1.20;;
63653;SDS011;49809;47.418;19.080;2022-07-04T06:44:39;1.30;;;1.20;;
63653;SDS011;49809;47.418;19.080;2022-07-04T06:47:43;1.33;;;1.17;;
63653;SDS011;49809;47.418;19.080;2022-07-04T06:50:46;1.60;;;1.10;;
63653;SDS011;49809;47.418;19.080;2022-07-04T06:53:49;1.33;;;1.23;;
63653;SDS011;49809;47.418;19.080;2022-07-04T06:56:53;1.30;;;1.20;;
63653;SDS011;49809;47.418;19.080;2022-07-04T07:00:18;2.10;;;1.33;;
63653;SDS011;49809;47.418;19.080;2022-07-04T07:03:21;1.33;;;1.10;;
63653;SDS011;49809;47.418;19.080;2022-07-04T07:06:25;1.48;;;1.37;;
63653;SDS011;49809;47.418;19.080;2022-07-04T07:09:28;1.35;;;1.17;;
63653;SDS011;49809;47.418;19.080;2022-07-04T07:12:34;1.23;;;1.10;;
63653;SDS011;49809;47.418;19.080;2022-07-04T07:15:37;1.33;;;1.23;;
63653;SDS011;49809;47.418;19.080;2022-07-04T07:18:43;1.15;;;1.08;;
63653;SDS011;49809;47.418;19.080;2022-07-04T07:21:49;1.60;;;1.50;;
63653;SDS011;49809;47.418;19.080;2022-07-04T07:24:57;1.98;;;1.27;;
63653;SDS011;49809;47.418;19.080;2022-07-04T07:28:00;2.78;;;1.30;;
63653;SDS011;49809;47.418;19.080;2022-07-04T07:31:04;1.30;;;1.20;;
63653;SDS011;49809;47.418;19.080;2022-07-04T07:34:09;1.70;;;1.20;;
63653;SDS011;49809;47.418;19.080;2022-07-04T07:37:20;1.10;;;0.93;;
63653;SDS011;49809;47.418;19.080;2022-07-04T07:40:24;1.27;;;1.17;;
63653;SDS011;49809;47.418;19.080;2022-07-04T07:43:28;1.17;;;1.10;;
63653;SDS011;49809;47.418;19.080;2022-07-04T07:46:31;1.20;;;1.10;;
63653;SDS011;49809;47.418;19.080;2022-07-04T07:49:34;1.70;;;1.10;;
63653;SDS011;49809;47.418;19.080;2022-07-04T07:52:39;1.52;;;1.40;;
63653;SDS011;49809;47.418;19.080;2022-07-04T07:55:42;1.00;;;0.90;;
63653;SDS011;49809;47.418;19.080;2022-07-04T07:58:45;1.00;;;0.90;;
63653;SDS011;49809;47.418;19.080;2022-07-04T08:01:51;1.00;;;0.90;;
63653;SDS011;49809;47.418;19.080;2022-07-04T08:04:57;1.10;;;0.93;;
63653;SDS011;49809;47.418;19.080;2022-07-04T08:08:05;0.90;;;0.90;;
63653;SDS011;49809;47.418;19.080;2022-07-04T08:11:12;1.20;;;1.10;;
63653;SDS011;49809;47.418;19.080;2022-07-04T08:14:15;0.80;;;0.80;;
63653;SDS011;49809;47.418;19.080;2022-07-04T08:17:22;1.20;;;1.10;;
63653;SDS011;49809;47.418;19.080;2022-07-04T08:20:25;0.80;;;0.80;;
63653;SDS011;49809;47.418;19.080;2022-07-04T08:23:29;1.15;;;1.00;;
63653;SDS011;49809;47.418;19.080;2022-07-04T08:26:35;1.10;;;0.90;;
63653;SDS011;49809;47.418;19.080;2022-07-04T08:29:40;1.10;;;1.00;;
63653;SDS011;49809;47.418;19.080;2022-07-04T08:32:43;1.30;;;1.20;;
63653;SDS011;49809;47.418;19.080;2022-07-04T08:35:46;0.80;;;0.80;;
63653;SDS011;49809;47.418;19.080;2022-07-04T08:38:49;1.77;;;0.82;;
63653;SDS011;49809;47.418;19.080;2022-07-04T08:41:53;0.93;;;0.90;;
63653;SDS011;49809;47.418;19.080;2022-07-04T08:45:02;1.20;;;0.90;;
63653;SDS011;49809;47.418;19.080;2022-07-04T08:48:08;1.08;;;0.98;;
63653;SDS011;49809;47.418;19.080;2022-07-04T08:51:19;1.10;;;1.00;;
63653;SDS011;49809;47.418;19.080;2022-07-04T08:54:28;1.35;;;1.02;;
63653;SDS011;49809;47.418;19.080;2022-07-04T08:57:51;1.48;;;0.90;;
63653;SDS011;49809;47.418;19.080;2022-07-04T09:01:13;1.30;;;1.20;;
63653;SDS011;49809;47.418;19.080;2022-07-04T09:04:19;1.58;;;1.10;;
63653;SDS011;49809;47.418;19.080;2022-07-04T09:07:24;1.00;;;1.00;;
63653;SDS011;49809;47.418;19.080;2022-07-04T09:10:29;1.20;;;1.10;;
63653;SDS011;49809;47.418;19.080;2022-07-04T09:13:35;1.00;;;1.00;;
63653;SDS011;49809;47.418;19.080;2022-07-04T09:16:38;1.10;;;1.00;;
63653;SDS011;49809;47.418;19.080;2022-07-04T09:19:42;1.05;;;1.00;;
63653;SDS011;49809;47.418;19.080;2022-07-04T09:22:47;1.02;;;0.95;;
63653;SDS011;49809;47.418;19.080;2022-07-04T09:29:19;2.85;;;1.00;;
63653;SDS011;49809;47.418;19.080;2022-07-04T09:35:37;0.90;;;0.90;;
63653;SDS011;49809;47.418;19.080;2022-07-04T09:38:41;2.10;;;1.10;;
63653;SDS011;49809;47.418;19.080;2022-07-04T09:42:01;1.05;;;0.95;;
63653;SDS011;49809;47.418;19.080;2022-07-04T09:45:06;1.05;;;1.00;;
63653;SDS011;49809;47.418;19.080;2022-07-04T09:48:13;0.90;;;0.90;;
63653;SDS011;49809;47.418;19.080;2022-07-04T09:51:37;1.10;;;1.00;;
63653;SDS011;49809;47.418;19.080;2022-07-04T09:54:48;0.90;;;0.90;;
63653;SDS011;49809;47.418;19.080;2022-07-04T09:57:52;1.27;;;1.17;;
63653;SDS011;49809;47.418;19.080;2022-07-04T10:00:59;0.90;;;0.90;;
63653;SDS011;49809;47.418;19.080;2022-07-04T10:04:02;1.33;;;1.23;;
63653;SDS011;49809;47.418;19.080;2022-07-04T10:07:08;1.20;;;1.10;;
63653;SDS011;49809;47.418;19.080;2022-07-04T10:10:23;1.50;;;1.40;;
63653;SDS011;49809;47.418;19.080;2022-07-04T10:13:31;3.75;;;1.00;;
63653;SDS011;49809;47.418;19.080;2022-07-04T10:16:37;1.27;;;1.17;;
63653;SDS011;49809;47.418;19.080;2022-07-04T10:19:45;2.37;;;1.27;;
63653;SDS011;49809;47.418;19.080;2022-07-04T10:22:52;1.65;;;1.20;;
63653;SDS011;49809;47.418;19.080;2022-07-04T10:25:55;1.25;;;1.17;;
63653;SDS011;49809;47.418;19.080;2022-07-04T10:28:58;1.20;;;1.10;;
63653;SDS011;49809;47.418;19.080;2022-07-04T10:32:01;1.20;;;1.10;;
63653;SDS011;49809;47.418;19.080;2022-07-04T10:35:05;1.30;;;1.20;;
63653;SDS011;49809;47.418;19.080;2022-07-04T10:38:09;1.37;;;1.27;;
63653;SDS011;49809;47.418;19.080;2022-07-04T10:41:13;1.30;;;1.20;;
63653;SDS011;49809;47.418;19.080;2022-07-04T10:44:21;1.03;;;1.03;;
63653;SDS011;49809;47.418;19.080;2022-07-04T10:47:29;1.30;;;1.20;;
63653;SDS011;49809;47.418;19.080;2022-07-04T10:50:33;1.17;;;1.17;;
63653;SDS011;49809;47.418;19.080;2022-07-04T10:53:57;1.30;;;1.20;;
63653;SDS011;49809;47.418;19.080;2022-07-04T10:57:24;1.80;;;1.70;;
63653;SDS011;49809;47.418;19.080;2022-07-04T11:00:27;2.72;;;1.30;;
63653;SDS011;49809;47.418;19.080;2022-07-04T11:03:30;1.10;;;1.10;;
63653;SDS011;49809;47.418;19.080;2022-07-04T11:06:51;1.60;;;1.50;;
63653;SDS011;49809;47.418;19.080;2022-07-04T11:13:23;1.00;;;1.00;;
63653;SDS011;49809;47.418;19.080;2022-07-04T11:16:26;1.50;;;1.40;;
63653;SDS011;49809;47.418;19.080;2022-07-04T11:19:59;1.02;;;1.00;;
63653;SDS011;49809;47.418;19.080;2022-07-04T11:23:21;1.70;;;1.60;;
63653;SDS011;49809;47.418;19.080;2022-07-04T11:26:24;1.50;;;1.40;;
63653;SDS011;49809;47.418;19.080;2022-07-04T11:29:28;0.88;;;0.88;;
63653;SDS011;49809;47.418;19.080;2022-07-04T11:32:32;1.23;;;1.20;;
63653;SDS011;49809;47.418;19.080;2022-07-04T11:35:36;0.95;;;0.90;;
63653;SDS011;49809;47.418;19.080;2022-07-04T11:38:43;0.90;;;0.90;;
63653;SDS011;49809;47.418;19.080;2022-07-04T11:41:53;0.98;;;0.98;;
63653;SDS011;49809;47.418;19.080;2022-07-04T11:45:21;0.95;;;0.95;;
63653;SDS011;49809;47.418;19.080;2022-07-04T11:48:33;1.27;;;1.17;;
63653;SDS011;49809;47.418;19.080;2022-07-04T11:51:41;1.10;;;1.10;;
63653;SDS011;49809;47.418;19.080;2022-07-04T11:54:49;0.90;;;0.90;;
63653;SDS011;49809;47.418;19.080;2022-07-04T11:57:56;1.25;;;1.17;;
63653;SDS011;49809;47.418;19.080;2022-07-04T12:01:00;1.00;;;1.00;;
63653;SDS011;49809;47.418;19.080;2022-07-04T12:07:20;1.02;;;1.02;;
63653;SDS011;49809;47.418;19.080;2022-07-04T12:10:27;1.62;;;1.10;;
63653;SDS011;49809;47.418;19.080;2022-07-04T12:13:32;1.20;;;1.17;;
63653;SDS011;49809;47.418;19.080;2022-07-04T12:16:35;1.97;;;1.10;;
63653;SDS011;49809;47.418;19.080;2022-07-04T12:19:38;0.98;;;0.98;;
63653;SDS011;49809;47.418;19.080;2022-07-04T12:22:59;1.30;;;1.20;;
63653;SDS011;49809;47.418;19.080;2022-07-04T12:26:04;0.98;;;0.98;;
63653;SDS011;49809;47.418;19.080;2022-07-04T12:29:11;1.10;;;1.10;;
63653;SDS011;49809;47.418;19.080;2022-07-04T12:32:22;0.93;;;0.93;;
63653;SDS011;49809;47.418;19.080;2022-07-04T12:38:47;1.05;;;1.05;;
63653;SDS011;49809;47.418;19.080;2022-07-04T12:41:50;1.10;;;1.00;;
63653;SDS011;49809;47.418;19.080;2022-07-04T12:45:11;1.98;;;1.00;;
63653;SDS011;49809;47.418;19.080;2022-07-04T12:48:15;1.00;;;1.00;;
63653;SDS011;49809;47.418;19.080;2022-07-04T12:51:22;1.12;;;1.10;;
63653;SDS011;49809;47.418;19.080;2022-07-04T12:54:30;0.90;;;0.90;;
63653;SDS011;49809;47.418;19.080;2022-07-04T12:57:38;0.98;;;0.98;;
63653;SDS011;49809;47.418;19.080;2022-07-04T13:00:41;1.10;;;1.00;;
63653;SDS011;49809;47.418;19.080;2022-07-04T13:03:46;0.80;;;0.80;;
63653;SDS011;49809;47.418;19.080;2022-07-04T13:06:52;1.67;;;1.35;;
63653;SDS011;49809;47.418;19.080;2022-07-04T13:09:57;0.90;;;0.90;;
63653;SDS011;49809;47.418;19.080;2022-07-04T13:13:00;0.90;;;0.90;;
63653;SDS011;49809;47.418;19.080;2022-07-04T13:16:04;0.80;;;0.80;;
63653;SDS011;49809;47.418;19.080;2022-07-04T13:19:12;1.02;;;0.93;;
63653;SDS011;49809;47.418;19.080;2022-07-04T13:22:15;0.90;;;0.90;;
63653;SDS011;49809;47.418;19.080;2022-07-04T13:25:18;1.00;;;0.93;;
63653;SDS011;49809;47.418;19.080;2022-07-04T13:28:24;0.93;;;0.90;;
63653;SDS011;49809;47.418;19.080;2022-07-04T13:31:28;1.00;;;1.00;;
63653;SDS011;49809;47.418;19.080;2022-07-04T13:34:31;1.08;;;0.98;;
63653;SDS011;49809;47.418;19.080;2022-07-04T13:37:34;1.52;;;1.00;;
63653;SDS011;49809;47.418;19.080;2022-07-04T13:40:41;1.17;;;1.08;;
63653;SDS011;49809;47.418;19.080;2022-07-04T13:43:45;1.00;;;0.90;;
63653;SDS011;49809;47.418;19.080;2022-07-04T13:46:52;1.50;;;1.15;;
63653;SDS011;49809;47.418;19.080;2022-07-04T13:49:59;1.23;;;1.00;;
63653;SDS011;49809;47.418;19.080;2022-07-04T13:53:02;0.95;;;0.95;;
63653;SDS011;49809;47.418;19.080;2022-07-04T13:56:12;1.17;;;1.00;;
63653;SDS011;49809;47.418;19.080;2022-07-04T13:59:18;1.00;;;0.90;;
63653;SDS011;49809;47.418;19.080;2022-07-04T14:02:22;1.00;;;0.90;;
63653;SDS011;49809;47.418;19.080;2022-07-04T14:05:26;0.90;;;0.90;;
63653;SDS011;49809;47.418;19.080;2022-07-04T14:08:34;1.00;;;0.90;;
63653;SDS011;49809;47.418;19.080;2022-07-04T14:11:37;1.12;;;1.00;;
63653;SDS011;49809;47.418;19.080;2022-07-04T14:14:42;1.20;;;1.10;;
63653;SDS011;49809;47.418;19.080;2022-07-04T14:17:45;1.77;;;1.00;;
63653;SDS011;49809;47.418;19.080;2022-07-04T14:20:50;1.15;;;1.05;;
63653;SDS011;49809;47.418;19.080;2022-07-04T14:23:54;1.20;;;1.10;;
63653;SDS011;49809;47.418;19.080;2022-07-04T14:26:58;1.17;;;1.02;;
63653;SDS011;49809;47.418;19.080;2022-07-04T14:30:04;1.50;;;1.00;;
63653;SDS011;49809;47.418;19.080;2022-07-04T14:33:09;0.88;;;0.88;;
63653;SDS011;49809;47.418;19.080;2022-07-04T14:36:19;1.20;;;1.10;;
63653;SDS011;49809;47.418;19.080;2022-07-04T14:39:21;1.15;;;1.02;;
63653;SDS011;49809;47.418;19.080;2022-07-04T14:42:29;1.15;;;1.02;;
63653;SDS011;49809;47.418;19.080;2022-07-04T14:45:32;1.20;;;1.10;;
63653;SDS011;49809;47.418;19.080;2022-07-04T14:48:38;1.30;;;1.20;;
63653;SDS011;49809;47.418;19.080;2022-07-04T14:51:43;1.37;;;1.23;;
63653;SDS011;49809;47.418;19.080;2022-07-04T14:54:46;1.62;;;0.93;;
63653;SDS011;49809;47.418;19.080;2022-07-04T14:57:49;1.20;;;1.10;;
63653;SDS011;49809;47.418;19.080;2022-07-04T15:00:52;1.30;;;1.20;;
63653;SDS011;49809;47.418;19.080;2022-07-04T15:03:55;1.70;;;0.90;;
63653;SDS011;49809;47.418;19.080;2022-07-04T15:07:01;1.30;;;1.20;;
63653;SDS011;49809;47.418;19.080;2022-07-04T15:10:05;2.53;;;1.40;;
63653;SDS011;49809;47.418;19.080;2022-07-04T15:13:10;2.03;;;1.30;;
63653;SDS011;49809;47.418;19.080;2022-07-04T15:16:13;0.88;;;0.88;;
63653;SDS011;49809;47.418;19.080;2022-07-04T15:19:27;1.10;;;1.00;;
63653;SDS011;49809;47.418;19.080;2022-07-04T15:22:29;1.15;;;1.05;;
63653;SDS011;49809;47.418;19.080;2022-07-04T15:25:52;1.05;;;1.00;;
63653;SDS011;49809;47.418;19.080;2022-07-04T15:28:55;2.35;;;0.90;;
63653;SDS011;49809;47.418;19.080;2022-07-04T15:32:02;1.80;;;1.08;;
63653;SDS011;49809;47.418;19.080;2022-07-04T15:35:11;1.15;;;1.05;;
63653;SDS011;49809;47.418;19.080;2022-07-04T15:38:16;1.87;;;1.23;;
63653;SDS011;49809;47.418;19.080;2022-07-04T15:41:19;1.75;;;1.00;;
63653;SDS011;49809;47.418;19.080;2022-07-04T15:44:24;2.58;;;1.00;;
63653;SDS011;49809;47.418;19.080;2022-07-04T15:47:27;1.10;;;1.00;;
63653;SDS011;49809;47.418;19.080;2022-07-04T15:50:33;1.50;;;1.17;;
63653;SDS011;49809;47.418;19.080;2022-07-04T15:53:38;1.10;;;0.98;;
63653;SDS011;49809;47.418;19.080;2022-07-04T15:56:41;1.10;;;1.00;;
63653;SDS011;49809;47.418;19.080;2022-07-04T15:59:44;1.30;;;1.20;;
63653;SDS011;49809;47.418;19.080;2022-07-04T16:02:47;0.82;;;0.82;;
63653;SDS011;49809;47.418;19.080;2022-07-04T16:05:50;1.92;;;0.95;;
63653;SDS011;49809;47.418;19.080;2022-07-04T16:08:56;1.50;;;0.90;;
63653;SDS011;49809;47.418;19.080;2022-07-04T16:11:58;1.52;;;1.10;;
63653;SDS011;49809;47.418;19.080;2022-07-04T16:18:10;2.70;;;1.23;;
63653;SDS011;49809;47.418;19.080;2022-07-04T16:21:13;1.67;;;1.58;;
63653;SDS011;49809;47.418;19.080;2022-07-04T16:24:19;1.52;;;1.42;;
63653;SDS011;49809;47.418;19.080;2022-07-04T16:27:22;3.83;;;1.25;;
63653;SDS011;49809;47.418;19.080;2022-07-04T16:30:28;1.33;;;1.23;;
63653;SDS011;49809;47.418;19.080;2022-07-04T16:33:31;1.52;;;1.40;;
63653;SDS011;49809;47.418;19.080;2022-07-04T16:36:34;1.50;;;1.40;;
63653;SDS011;49809;47.418;19.080;2022-07-04T16:39:37;1.50;;;1.40;;
63653;SDS011;49809;47.418;19.080;2022-07-04T16:42:40;1.48;;;1.30;;
63653;SDS011;49809;47.418;19.080;2022-07-04T16:45:44;1.50;;;1.40;;
63653;SDS011;49809;47.418;19.080;2022-07-04T16:48:47;1.37;;;1.27;;
63653;SDS011;49809;47.418;19.080;2022-07-04T16:51:52;1.40;;;1.30;;
63653;SDS011;49809;47.418;19.080;2022-07-04T16:54:56;1.75;;;1.52;;
63653;SDS011;49809;47.418;19.080;2022-07-04T16:57:58;1.92;;;1.65;;
63653;SDS011;49809;47.418;19.080;2022-07-04T17:01:02;1.60;;;1.50;;
63653;SDS011;49809;47.418;19.080;2022-07-04T17:04:08;2.97;;;1.80;;
63653;SDS011;49809;47.418;19.080;2022-07-04T17:07:10;1.75;;;1.60;;
63653;SDS011;49809;47.418;19.080;2022-07-04T17:10:14;2.10;;;1.70;;
63653;SDS011;49809;47.418;19.080;2022-07-04T17:13:17;2.47;;;1.58;;
63653;SDS011;49809;47.418;19.080;2022-07-04T17:16:20;1.70;;;1.60;;
63653;SDS011;49809;47.418;19.080;2022-07-04T17:19:23;2.87;;;1.85;;
63653;SDS011;49809;47.418;19.080;2022-07-04T17:22:26;2.58;;;1.60;;
63653;SDS011;49809;47.418;19.080;2022-07-04T17:25:29;4.05;;;1.60;;
63653;SDS011;49809;47.418;19.080;2022-07-04T17:28:37;1.80;;;1.70;;
63653;SDS011;49809;47.418;19.080;2022-07-04T17:31:40;4.72;;;1.85;;
63653;SDS011;49809;47.418;19.080;2022-07-04T17:34:45;2.45;;;1.67;;
63653;SDS011;49809;47.418;19.080;2022-07-04T17:37:49;2.12;;;1.92;;
63653;SDS011;49809;47.418;19.080;2022-07-04T17:40:54;2.57;;;1.77;;
63653;SDS011;49809;47.418;19.080;2022-07-04T17:44:17;1.73;;;1.62;;
63653;SDS011;49809;47.418;19.080;2022-07-04T17:47:27;2.40;;;1.60;;
63653;SDS011;49809;47.418;19.080;2022-07-04T17:50:30;2.42;;;1.85;;
63653;SDS011;49809;47.418;19.080;2022-07-04T17:53:33;2.12;;;1.62;;
63653;SDS011;49809;47.418;19.080;2022-07-04T17:56:36;2.37;;;1.70;;
63653;SDS011;49809;47.418;19.080;2022-07-04T17:59:44;2.15;;;1.70;;
63653;SDS011;49809;47.418;19.080;2022-07-04T18:03:01;2.78;;;2.03;;
63653;SDS011;49809;47.418;19.080;2022-07-04T18:06:10;1.60;;;1.50;;
63653;SDS011;49809;47.418;19.080;2022-07-04T18:09:15;1.90;;;1.70;;
63653;SDS011;49809;47.418;19.080;2022-07-04T18:15:31;2.00;;;1.60;;
63653;SDS011;49809;47.418;19.080;2022-07-04T18:18:34;1.92;;;1.80;;
63653;SDS011;49809;47.418;19.080;2022-07-04T18:21:42;1.75;;;1.65;;
63653;SDS011;49809;47.418;19.080;2022-07-04T18:24:47;2.62;;;1.42;;
63653;SDS011;49809;47.418;19.080;2022-07-04T18:27:50;1.70;;;1.60;;
63653;SDS011;49809;47.418;19.080;2022-07-04T18:31:01;2.25;;;1.80;;
63653;SDS011;49809;47.418;19.080;2022-07-04T18:34:07;3.92;;;1.45;;
63653;SDS011;49809;47.418;19.080;2022-07-04T18:37:10;2.58;;;1.60;;
63653;SDS011;49809;47.418;19.080;2022-07-04T18:40:13;1.85;;;1.52;;
63653;SDS011;49809;47.418;19.080;2022-07-04T18:43:39;2.05;;;1.50;;
63653;SDS011;49809;47.418;19.080;2022-07-04T18:46:47;1.77;;;1.50;;
63653;SDS011;49809;47.418;19.080;2022-07-04T18:52:53;2.03;;;1.60;;
63653;SDS011;49809;47.418;19.080;2022-07-04T18:55:58;2.50;;;1.52;;